Página principal
METAR-TAF:

METAR-TAF

Aeroportos :

Stinson Municipal Airport

San Antonio, Texas, Estados Unidos

latitude: 29-20-20N, longitude: 098-28-18W, altura: 175 m

Observação actual do tempo

O boletim foi feito há 1 hora e 8 minutos, às 14:53 UTC
Vento 12 kt de norte
Temperatura 18°C
Humidade 34%
Pressão 1009 hPa
Visibilidade: 16.1 km
Nuvens dispersasa uma altura de 6000 ft

METAR: KSSF 171453Z 01012KT 10SM SCT060 18/02 A2979 RMK AO2 SLP083 T01830017 51025

Hora: 10:01 (16:01 UTC)

Previsão

O boletim foi feito há 1 hora e 19 minutos, às 14:42 UTC
Previsão válida de 17 às 15 UTC a 18 às 12 UTC
Vento 10 kt de norte
Visibilidade: 10 km
Nuvens fragmentadasa uma altura de 5000 ft
A partir de 18 às 0100 UTC
Vento 9 kt de nordeste
Visibilidade: 10 km
Poucas nuvensa uma altura de 7000 ft

TAF: KSSF 171442Z 1715/1812 36010KT P6SM BKN050 FM180100 04009KT P6SM FEW070

Observações e previsões do tempo de mais de 4000 aeroportos (mensagens METAR e TAF).

As estações disponíveis são os pontos amarelos e vermelhos sobre o mapa.

Mova o rato sobre o mapa para ver o nome da estação.

Depois clique no ponto para visualizar as observações e previsões meteorológicas.

Para alterar o mapa : clique nos botões verdes com uma cruz preta para aumentar o zoom; no botão verde com uma pitada de zoom; ou nas setas verdes para mapas adjacentes.


METAR-TAF: